Time;durP1;ratioP1;P1;durP2;ratioP2;P2;SDS_P1;SDS_P2;PMS_P1;PMS_P2;Temp;Humidity;BMP_temperature;BMP_pressure;BME280_temperature;BME280_humidity;BME280_pressure;Samples;Min_cycle;Max_cycle;Signal;HPM_P1;HPM_P2
2024/03/20 00:02:26;;;;;;;16.90;11.20;;;;;;;-1.15;85.20;97244.70;108320;1278;25367;-74
2024/03/20 00:04:57;;;;;;;17.80;11.70;;;;;;;-1.12;85.05;97245.25;108332;1278;22567;-74
2024/03/20 00:07:28;;;;;;;15.80;10.20;;;;;;;-1.16;84.86;97247.12;108269;1273;22531;-74
2024/03/20 00:09:58;;;;;;;19.30;10.90;;;;;;;-1.23;84.79;97241.52;108321;1278;22560;-74
2024/03/20 00:12:29;;;;;;;21.40;12.90;;;;;;;-1.33;84.46;97236.88;108268;1272;22541;-74
2024/03/20 00:15:00;;;;;;;22.10;14.40;;;;;;;-1.45;84.25;97236.80;108345;1278;22533;-74
2024/03/20 00:17:30;;;;;;;16.10;10.30;;;;;;;-1.55;84.41;97232.40;108352;1274;22569;-74
2024/03/20 00:20:01;;;;;;;13.40;7.90;;;;;;;-1.58;84.84;97232.92;108306;1278;22541;-74
2024/03/20 00:22:37;;;;;;;13.30;9.00;;;;;;;-1.53;85.28;97225.95;108317;1278;25449;-74
2024/03/20 00:25:10;;;;;;;16.30;10.40;;;;;;;-1.48;85.54;97222.02;108337;1274;26575;-74
2024/03/20 00:27:40;;;;;;;15.00;9.00;;;;;;;-1.40;85.90;97214.45;108341;1278;22543;-74
2024/03/20 00:30:12;;;;;;;13.40;8.30;;;;;;;-1.34;86.15;97215.46;108297;1278;25501;-74
2024/03/20 00:32:43;;;;;;;13.70;8.90;;;;;;;-1.32;85.96;97213.11;108402;1278;25249;-74
2024/03/20 00:35:14;;;;;;;14.40;10.50;;;;;;;-1.34;85.97;97209.02;108350;1276;25394;-74
2024/03/20 00:37:45;;;;;;;15.20;9.80;;;;;;;-1.35;86.09;97204.73;108334;1278;22543;-74
2024/03/20 00:40:16;;;;;;;13.70;9.00;;;;;;;-1.36;86.12;97202.52;108317;1278;22554;-74
2024/03/20 00:42:46;;;;;;;15.00;9.40;;;;;;;-1.37;85.86;97199.20;108328;1274;22848;-74
2024/03/20 00:45:18;;;;;;;17.20;10.00;;;;;;;-1.31;86.42;97202.20;108315;1275;22521;-74
2024/03/20 00:47:49;;;;;;;17.40;10.70;;;;;;;-1.22;86.69;97200.52;108310;1276;23059;-74
2024/03/20 00:50:22;;;;;;;19.70;10.90;;;;;;;-1.20;86.53;97200.73;108335;1278;22659;-74
2024/03/20 00:52:52;;;;;;;18.10;11.60;;;;;;;-1.24;86.21;97196.15;108306;1271;22617;-74
2024/03/20 00:55:23;;;;;;;23.10;13.70;;;;;;;-1.31;85.94;97190.48;108307;1276;22542;-74
2024/03/20 00:57:53;;;;;;;15.40;10.50;;;;;;;-1.36;86.06;97191.44;108345;1277;22576;-74
2024/03/20 01:00:24;;;;;;;15.30;9.40;;;;;;;-1.27;86.65;97186.38;108306;1278;22535;-74
2024/03/20 01:02:55;;;;;;;15.90;10.10;;;;;;;-1.17;86.51;97179.53;108356;1276;24307;-74
2024/03/20 01:05:25;;;;;;;16.50;11.00;;;;;;;-1.11;86.68;97178.66;108359;1277;22564;-74
2024/03/20 01:07:56;;;;;;;14.90;10.40;;;;;;;-1.09;86.37;97174.46;108350;1277;22527;-74
2024/03/20 01:10:26;;;;;;;15.80;9.60;;;;;;;-1.08;86.51;97176.32;108352;1277;22559;-74
2024/03/20 01:12:59;;;;;;;16.70;10.60;;;;;;;-1.06;86.43;97175.92;108283;1278;22753;-74
2024/03/20 01:15:29;;;;;;;17.20;10.70;;;;;;;-1.06;86.12;97173.84;108366;1273;24459;-74
2024/03/20 01:18:01;;;;;;;17.40;11.10;;;;;;;-1.06;86.19;97175.64;108345;1278;22539;-74
2024/03/20 01:20:31;;;;;;;17.30;10.80;;;;;;;-1.09;86.09;97176.73;108353;1278;24296;-74
2024/03/20 01:23:04;;;;;;;16.60;10.30;;;;;;;-1.14;85.90;97173.50;108331;1278;22658;-74
2024/03/20 01:25:35;;;;;;;15.50;9.60;;;;;;;-1.16;86.12;97175.69;108362;1278;22583;-73
2024/03/20 01:28:06;;;;;;;14.50;9.30;;;;;;;-1.19;86.00;97171.52;108347;1278;22554;-74
2024/03/20 01:30:37;;;;;;;16.50;10.60;;;;;;;-1.21;86.04;97167.83;108375;1273;22579;-73
2024/03/20 01:33:08;;;;;;;15.80;9.10;;;;;;;-1.25;85.94;97171.48;108349;1275;22542;-73
2024/03/20 01:35:38;;;;;;;17.20;10.70;;;;;;;-1.32;85.54;97170.46;108377;1270;22535;-73
2024/03/20 01:38:09;;;;;;;16.60;10.60;;;;;;;-1.37;85.46;97169.70;108393;1276;24201;-73
2024/03/20 01:40:40;;;;;;;16.10;10.20;;;;;;;-1.40;85.87;97169.02;108353;1270;22559;-73
2024/03/20 01:43:19;;;;;;;18.20;10.80;;;;;;;-1.40;85.68;97169.23;108298;1274;22539;-73
2024/03/20 01:45:51;;;;;;;16.20;10.40;;;;;;;-1.38;86.10;97167.98;108350;1273;22662;-73
2024/03/20 01:48:22;;;;;;;16.40;10.00;;;;;;;-1.37;86.32;97163.27;108292;1278;22540;-74
2024/03/20 01:50:53;;;;;;;16.90;10.70;;;;;;;-1.35;86.72;97161.00;108334;1278;22548;-73
2024/03/20 01:53:24;;;;;;;15.80;10.40;;;;;;;-1.34;86.50;97165.89;108362;1270;22542;-74
2024/03/20 01:55:55;;;;;;;15.30;9.10;;;;;;;-1.31;86.58;97163.74;108347;1277;22567;-74
2024/03/20 01:58:25;;;;;;;13.50;9.30;;;;;;;-1.30;86.56;97163.14;108364;1273;22564;-73
2024/03/20 02:00:56;;;;;;;17.20;9.90;;;;;;;-1.31;86.39;97168.75;108369;1277;22541;-73
2024/03/20 02:03:26;;;;;;;15.70;9.50;;;;;;;-1.28;86.67;97167.04;108396;1277;22572;-74
2024/03/20 02:05:57;;;;;;;14.60;8.20;;;;;;;-1.27;86.77;97167.59;108396;1277;22584;-73
2024/03/20 02:08:29;;;;;;;14.00;8.00;;;;;;;-1.28;86.72;97167.36;108354;1270;22618;-73
2024/03/20 02:11:00;;;;;;;12.80;7.50;;;;;;;-1.30;86.68;97171.55;108381;1272;22542;-74
2024/03/20 02:13:30;;;;;;;13.00;8.60;;;;;;;-1.32;86.48;97171.82;108385;1277;22571;-74
2024/03/20 02:16:01;;;;;;;14.20;8.10;;;;;;;-1.33;86.63;97166.89;108375;1277;22533;-74
2024/03/20 02:18:32;;;;;;;10.70;7.70;;;;;;;-1.33;86.68;97170.41;108374;1277;22525;-73
2024/03/20 02:21:08;;;;;;;12.90;7.90;;;;;;;-1.34;86.82;97170.09;108359;1277;22574;-73
2024/03/20 02:23:39;;;;;;;11.40;7.70;;;;;;;-1.40;86.43;97171.30;108385;1273;22535;-73
2024/03/20 02:26:11;;;;;;;12.20;7.70;;;;;;;-1.38;86.81;97171.98;108387;1277;22554;-74
2024/03/20 02:28:43;;;;;;;13.10;7.40;;;;;;;-1.35;86.90;97172.13;108342;1277;26813;-73
2024/03/20 02:31:17;;;;;;;12.10;8.00;;;;;;;-1.34;86.81;97168.98;108352;1270;25272;-73
2024/03/20 02:33:47;;;;;;;13.50;8.00;;;;;;;-1.33;87.08;97168.90;108381;1270;23066;-73
2024/03/20 02:36:18;;;;;;;14.30;8.00;;;;;;;-1.26;87.31;97169.47;108377;1277;22531;-73
2024/03/20 02:38:49;;;;;;;12.10;7.30;;;;;;;-1.18;87.17;97166.84;108360;1270;22666;-73
2024/03/20 02:41:19;;;;;;;13.50;8.60;;;;;;;-1.11;87.10;97168.97;108366;1270;24286;-74
2024/03/20 02:43:52;;;;;;;14.70;9.00;;;;;;;-1.07;86.84;97167.63;108361;1277;22536;-74
2024/03/20 02:46:25;;;;;;;15.10;9.40;;;;;;;-1.09;86.80;97166.95;108379;1270;22549;-73
2024/03/20 02:48:55;;;;;;;14.80;9.40;;;;;;;-1.10;86.60;97171.14;108370;1277;22525;-73
2024/03/20 02:51:29;;;;;;;13.60;9.00;;;;;;;-1.11;86.51;97172.29;108375;1277;22644;-74
2024/03/20 02:54:00;;;;;;;12.20;7.90;;;;;;;-1.13;86.52;97173.34;108373;1277;22533;-73
2024/03/20 02:56:30;;;;;;;11.70;7.80;;;;;;;-1.12;86.41;97172.61;108368;1278;25472;-74
2024/03/20 02:59:01;;;;;;;12.10;7.00;;;;;;;-1.10;86.67;97174.31;108386;1276;22547;-74
2024/03/20 03:01:32;;;;;;;14.70;8.90;;;;;;;-1.02;86.43;97175.30;108381;1277;22515;-73
2024/03/20 03:04:05;;;;;;;12.90;8.50;;;;;;;-0.96;86.49;97172.23;108390;1270;22517;-73
2024/03/20 03:06:35;;;;;;;12.30;8.30;;;;;;;-0.86;86.44;97171.39;108383;1274;24239;-73
2024/03/20 03:09:08;;;;;;;12.90;7.90;;;;;;;-0.81;86.15;97169.02;108377;1277;22528;-74
2024/03/20 03:11:38;;;;;;;12.50;8.00;;;;;;;-0.79;86.30;97169.36;108208;1271;22638;-73
2024/03/20 03:14:09;;;;;;;12.70;7.80;;;;;;;-0.75;86.35;97159.08;108270;1273;22526;-73
2024/03/20 03:16:40;;;;;;;13.20;8.10;;;;;;;-0.75;86.18;97160.84;108265;1278;22594;-74
2024/03/20 03:19:11;;;;;;;14.70;8.50;;;;;;;-0.76;86.25;97154.91;108263;1271;22574;-73
2024/03/20 03:21:42;;;;;;;11.80;7.90;;;;;;;-0.77;85.89;97148.50;108370;1278;22644;-73
2024/03/20 03:24:12;;;;;;;15.90;8.60;;;;;;;-0.77;86.18;97151.78;108467;1278;25234;-74
2024/03/20 03:26:43;;;;;;;12.60;7.00;;;;;;;-0.73;85.94;97149.91;108379;1278;22570;-73
2024/03/20 03:29:13;;;;;;;14.50;8.20;;;;;;;-0.69;86.31;97152.52;108325;1276;23283;-74
2024/03/20 03:31:44;;;;;;;16.10;8.70;;;;;;;-0.65;86.34;97143.84;108231;1258;22589;-74
2024/03/20 03:34:14;;;;;;;13.50;8.40;;;;;;;-0.63;86.20;97145.00;108234;1272;22554;-74
2024/03/20 03:36:45;;;;;;;14.80;8.30;;;;;;;-0.60;86.35;97144.80;108301;1278;22658;-74
2024/03/20 03:39:16;;;;;;;14.00;8.90;;;;;;;-0.58;86.11;97145.61;108270;1278;22681;-74
2024/03/20 03:41:46;;;;;;;14.00;9.50;;;;;;;-0.57;85.97;97141.52;108229;1278;24285;-74
2024/03/20 03:44:17;;;;;;;15.80;9.70;;;;;;;-0.58;85.87;97140.52;108280;1272;22542;-74
2024/03/20 03:46:47;;;;;;;14.20;8.90;;;;;;;-0.55;86.08;97142.98;108276;1278;22548;-74
2024/03/20 03:49:18;;;;;;;16.20;9.60;;;;;;;-0.53;85.79;97142.05;108207;1278;22531;-74
2024/03/20 03:51:48;;;;;;;16.60;9.70;;;;;;;-0.53;85.87;97141.13;108265;1278;22565;-74
2024/03/20 03:54:19;;;;;;;17.30;10.20;;;;;;;-0.51;85.52;97140.36;108260;1277;23382;-74
2024/03/20 03:56:52;;;;;;;17.50;9.40;;;;;;;-0.50;85.73;97142.73;108310;1274;22542;-74
2024/03/20 03:59:22;;;;;;;15.30;9.10;;;;;;;-0.46;85.67;97143.37;108357;1278;22537;-74
2024/03/20 04:01:53;;;;;;;17.80;10.10;;;;;;;-0.41;85.70;97147.02;108241;1278;22573;-74
2024/03/20 04:04:23;;;;;;;17.80;10.50;;;;;;;-0.36;85.55;97151.11;108267;1278;24168;-74
2024/03/20 04:06:54;;;;;;;17.50;10.40;;;;;;;-0.34;85.48;97153.48;108277;1273;25533;-74
2024/03/20 04:09:27;;;;;;;14.30;9.30;;;;;;;-0.35;85.07;97153.36;108275;1278;22583;-74
2024/03/20 04:11:58;;;;;;;14.30;9.20;;;;;;;-0.38;84.82;97154.91;108247;1278;23607;-74
2024/03/20 04:14:29;;;;;;;17.10;11.00;;;;;;;-0.41;84.87;97155.31;108303;1278;24361;-74
2024/03/20 04:16:59;;;;;;;18.80;10.70;;;;;;;-0.43;84.54;97157.01;108298;1278;24508;-74
2024/03/20 04:19:30;;;;;;;17.40;10.80;;;;;;;-0.44;84.88;97161.85;108302;1278;24627;-74
2024/03/20 04:22:02;;;;;;;16.60;10.00;;;;;;;-0.44;84.75;97160.68;108260;1274;24237;-74
2024/03/20 04:24:33;;;;;;;15.30;9.40;;;;;;;-0.45;84.72;97164.20;108291;1273;22590;-74
2024/03/20 04:27:04;;;;;;;19.40;10.50;;;;;;;-0.45;84.53;97166.30;108253;1278;22529;-74
2024/03/20 04:29:34;;;;;;;17.10;10.60;;;;;;;-0.42;84.49;97167.16;108284;1278;22644;-74
2024/03/20 04:32:10;;;;;;;16.70;9.80;;;;;;;-0.43;84.31;97169.16;108288;1278;22551;-74
2024/03/20 04:34:40;;;;;;;14.40;9.30;;;;;;;-0.44;84.20;97172.66;108351;1278;24261;-74
2024/03/20 04:37:11;;;;;;;15.00;9.80;;;;;;;-0.44;84.15;97174.39;108436;1270;22532;-74
2024/03/20 04:39:41;;;;;;;15.20;10.30;;;;;;;-0.45;84.26;97180.36;108401;1278;24274;-74
2024/03/20 04:42:12;;;;;;;16.00;10.40;;;;;;;-0.46;84.36;97178.02;108423;1271;22538;-74
2024/03/20 04:44:43;;;;;;;15.00;9.40;;;;;;;-0.46;84.27;97178.79;108295;1272;24266;-74
2024/03/20 04:47:13;;;;;;;15.10;9.50;;;;;;;-0.47;84.09;97178.15;108328;1277;22557;-74
2024/03/20 04:49:44;;;;;;;15.70;9.70;;;;;;;-0.50;84.00;97179.67;108269;1278;22633;-74
2024/03/20 04:52:14;;;;;;;14.80;8.80;;;;;;;-0.48;84.16;97180.75;108236;1278;22533;-75
2024/03/20 04:54:45;;;;;;;17.70;11.20;;;;;;;-0.42;84.04;97178.49;108317;1270;22563;-74
2024/03/20 04:57:17;;;;;;;18.90;11.70;;;;;;;-0.35;84.17;97181.25;108324;1276;22570;-74
2024/03/20 04:59:47;;;;;;;16.10;10.90;;;;;;;-0.39;84.14;97180.73;108263;1278;22536;-74
2024/03/20 05:02:18;;;;;;;17.10;10.20;;;;;;;-0.43;83.92;97178.41;108273;1275;22484;-74
2024/03/20 05:04:49;;;;;;;16.10;10.00;;;;;;;-0.43;83.83;97177.34;108268;1278;25325;-74
2024/03/20 05:07:19;;;;;;;17.70;10.80;;;;;;;-0.40;83.83;97180.29;108302;1278;22635;-74
2024/03/20 05:09:50;;;;;;;18.40;10.20;;;;;;;-0.36;84.21;97183.98;108298;1271;24160;-74
2024/03/20 05:12:22;;;;;;;17.00;9.90;;;;;;;-0.21;84.42;97181.90;108258;1272;24315;-74
2024/03/20 05:14:53;;;;;;;16.80;10.20;;;;;;;0.17;84.42;97181.55;108298;1276;22576;-73
2024/03/20 05:17:23;;;;;;;16.70;10.70;;;;;;;0.59;84.14;97176.38;108301;1278;22524;-73
2024/03/20 05:19:54;;;;;;;15.30;10.30;;;;;;;1.02;83.87;97177.02;108237;1272;25406;-74
2024/03/20 05:22:24;;;;;;;17.50;11.20;;;;;;;1.43;83.62;97178.73;108313;1271;22536;-74
2024/03/20 05:24:55;;;;;;;16.10;10.60;;;;;;;1.85;82.89;97180.61;108383;1271;22561;-73
2024/03/20 05:27:26;;;;;;;14.60;10.60;;;;;;;2.27;82.36;97180.86;108246;1278;22531;-73
2024/03/20 05:29:57;;;;;;;16.10;11.60;;;;;;;2.74;81.85;97180.73;108272;1267;22757;-73
2024/03/20 05:32:28;;;;;;;17.30;11.10;;;;;;;3.27;81.39;97175.83;108218;1272;25731;-74
2024/03/20 05:34:58;;;;;;;15.20;11.30;;;;;;;3.90;80.59;97180.64;108332;1278;22674;-74
2024/03/20 05:37:29;;;;;;;14.80;11.00;;;;;;;4.51;80.11;97176.51;108315;1273;22595;-74
2024/03/20 05:39:59;;;;;;;15.30;11.20;;;;;;;4.77;78.60;97176.80;108286;1278;22526;-74
2024/03/20 05:42:30;;;;;;;15.00;11.50;;;;;;;5.00;77.76;97182.52;108274;1275;22594;-74
2024/03/20 05:45:01;;;;;;;13.70;10.60;;;;;;;5.41;77.27;97178.86;108300;1278;22585;-74
2024/03/20 05:47:32;;;;;;;15.50;11.00;;;;;;;6.05;76.87;97173.84;108290;1271;22525;-74
2024/03/20 05:50:02;;;;;;;14.00;10.90;;;;;;;6.60;75.79;97176.48;108247;1278;22623;-74
2024/03/20 05:52:34;;;;;;;15.30;10.60;;;;;;;7.21;74.92;97173.63;108267;1270;22524;-74
2024/03/20 05:55:08;;;;;;;14.60;11.50;;;;;;;7.24;72.99;97170.57;108257;1271;22563;-74
2024/03/20 05:57:38;;;;;;;12.70;10.40;;;;;;;7.45;71.97;97170.21;108312;1271;22546;-74
2024/03/20 06:00:14;;;;;;;14.90;10.80;;;;;;;7.58;70.92;97168.16;108282;1271;24209;-74
2024/03/20 06:02:47;;;;;;;12.50;10.30;;;;;;;7.64;69.94;97170.92;108255;1275;22529;-74
2024/03/20 06:05:18;;;;;;;12.70;10.70;;;;;;;8.26;70.24;97168.02;108117;1271;188173;-74
2024/03/20 06:07:48;;;;;;;14.90;10.40;;;;;;;8.78;68.91;97168.20;108261;1278;22548;-74
2024/03/20 06:10:19;;;;;;;14.40;11.00;;;;;;;9.10;67.34;97171.39;108245;1279;22644;-74
2024/03/20 06:12:50;;;;;;;13.70;10.50;;;;;;;9.31;66.70;97165.91;108219;1278;25249;-74
2024/03/20 06:15:20;;;;;;;14.70;11.20;;;;;;;9.65;65.43;97170.05;108292;1278;24215;-75
2024/03/20 06:17:51;;;;;;;14.20;11.30;;;;;;;10.15;64.90;97168.19;108311;1278;22525;-74
2024/03/20 06:20:22;;;;;;;12.80;11.00;;;;;;;10.62;63.81;97172.95;108284;1278;22524;-74
2024/03/20 06:22:53;;;;;;;15.20;11.10;;;;;;;10.57;61.99;97174.08;108185;1278;24283;-74
2024/03/20 06:25:24;;;;;;;13.50;10.80;;;;;;;10.80;61.12;97171.84;108285;1278;22529;-75
2024/03/20 06:27:55;;;;;;;12.90;10.90;;;;;;;10.84;60.32;97169.94;108291;1274;22538;-73
2024/03/20 06:30:26;;;;;;;12.80;9.90;;;;;;;11.06;59.00;97168.70;108270;1272;22602;-73
2024/03/20 06:32:56;;;;;;;12.40;10.50;;;;;;;10.79;56.84;97170.77;108273;1278;22529;-72
2024/03/20 06:35:29;;;;;;;11.10;9.60;;;;;;;10.75;56.96;97173.96;108240;1273;22561;-73
2024/03/20 06:38:01;;;;;;;13.80;10.90;;;;;;;10.94;56.49;97175.61;108224;1278;22557;-73
2024/03/20 06:40:33;;;;;;;11.40;10.20;;;;;;;11.78;57.39;97172.77;108267;1275;22776;-73
2024/03/20 06:43:06;;;;;;;12.70;10.70;;;;;;;12.59;56.69;97175.17;108302;1278;22530;-73
2024/03/20 06:45:41;;;;;;;14.90;11.50;;;;;;;12.94;55.22;97177.85;108268;1271;25248;-73
2024/03/20 06:48:12;;;;;;;11.50;9.70;;;;;;;12.86;53.49;97181.85;108278;1278;22543;-73
2024/03/20 06:50:43;;;;;;;13.60;10.70;;;;;;;12.62;51.60;97174.57;108268;1278;26123;-73
2024/03/20 06:53:14;;;;;;;13.20;10.90;;;;;;;12.47;52.25;97179.58;108270;1278;22540;-73
2024/03/20 06:55:48;;;;;;;14.00;11.00;;;;;;;13.03;52.21;97176.29;108276;1278;22529;-73
2024/03/20 06:58:18;;;;;;;13.20;11.10;;;;;;;13.29;51.74;97179.37;108262;1278;22529;-73
2024/03/20 07:00:49;;;;;;;11.60;10.20;;;;;;;13.74;51.48;97182.63;108267;1278;22521;-74
2024/03/20 07:03:20;;;;;;;15.00;11.20;;;;;;;14.16;50.74;97181.95;108284;1277;22516;-73
2024/03/20 07:05:51;;;;;;;12.60;10.40;;;;;;;14.91;50.91;97184.14;108292;1278;24338;-73
2024/03/20 07:08:24;;;;;;;11.40;10.20;;;;;;;15.22;49.37;97185.63;108306;1276;24894;-73
2024/03/20 07:10:55;;;;;;;11.70;10.50;;;;;;;15.25;48.34;97184.17;108275;1278;22557;-73
2024/03/20 07:13:26;;;;;;;12.90;11.60;;;;;;;15.03;47.44;97191.07;108295;1278;22542;-73
2024/03/20 07:15:57;;;;;;;13.30;11.40;;;;;;;15.12;47.39;97191.66;108278;1278;24235;-73
2024/03/20 07:18:28;;;;;;;12.30;9.20;;;;;;;15.40;46.76;97188.39;108312;1272;25370;-73
2024/03/20 07:20:59;;;;;;;12.60;10.50;;;;;;;15.60;46.37;97188.86;108256;1278;22618;-74
2024/03/20 07:23:30;;;;;;;13.70;11.50;;;;;;;15.64;45.92;97190.39;108286;1278;24256;-73
2024/03/20 07:26:01;;;;;;;13.20;10.10;;;;;;;16.14;46.56;97193.61;108322;1278;22549;-73
2024/03/20 07:28:37;;;;;;;13.00;11.50;;;;;;;16.84;45.70;97196.73;108291;1278;22519;-73
2024/03/20 07:31:09;;;;;;;11.40;10.20;;;;;;;16.83;45.13;97187.90;108275;1277;22516;-73
2024/03/20 07:33:40;;;;;;;12.00;9.90;;;;;;;17.32;45.42;97192.05;108237;1271;22660;-73
2024/03/20 07:36:11;;;;;;;13.10;11.70;;;;;;;18.27;45.39;97188.63;108272;1271;22546;-73
2024/03/20 07:38:41;;;;;;;12.20;10.70;;;;;;;18.89;45.01;97191.54;108308;1277;22522;-74
2024/03/20 07:41:12;;;;;;;11.70;10.30;;;;;;;19.47;43.84;97197.20;108251;1277;22671;-73
2024/03/20 07:43:43;;;;;;;12.30;10.70;;;;;;;19.29;42.68;97193.04;108273;1276;25359;-75
2024/03/20 07:46:14;;;;;;;12.50;10.50;;;;;;;19.28;42.57;97191.02;108310;1271;22545;-74
2024/03/20 07:48:47;;;;;;;12.00;10.30;;;;;;;19.80;42.84;97192.51;108406;1276;22550;-74
2024/03/20 07:51:19;;;;;;;10.60;9.50;;;;;;;20.01;42.01;97189.72;108368;1271;22720;-74
2024/03/20 07:53:50;;;;;;;11.90;10.60;;;;;;;19.96;41.67;97188.22;108352;1277;24337;-74
2024/03/20 07:56:20;;;;;;;11.70;10.50;;;;;;;20.07;41.16;97186.29;108309;1277;22679;-74
2024/03/20 07:58:51;;;;;;;10.90;9.80;;;;;;;20.48;40.90;97184.23;108275;1277;22523;-74
2024/03/20 08:01:22;;;;;;;11.40;10.20;;;;;;;20.86;40.77;97180.61;108268;1277;25530;-74
2024/03/20 08:03:53;;;;;;;11.20;9.50;;;;;;;21.03;40.14;97180.23;108294;1271;22570;-74
2024/03/20 08:06:24;;;;;;;12.10;9.90;;;;;;;21.20;39.76;97179.73;108256;1277;24258;-74
2024/03/20 08:08:55;;;;;;;11.10;9.80;;;;;;;21.56;39.79;97179.13;108295;1277;22532;-74
2024/03/20 08:11:25;;;;;;;10.30;8.80;;;;;;;22.21;39.61;97177.96;108237;1277;22723;-73
2024/03/20 08:13:56;;;;;;;9.90;8.30;;;;;;;22.45;39.15;97178.86;108358;1278;22673;-74
2024/03/20 08:16:27;;;;;;;9.30;8.30;;;;;;;22.58;37.79;97177.23;108254;1271;22575;-73
2024/03/20 08:18:58;;;;;;;10.30;8.40;;;;;;;22.45;37.54;97175.48;108258;1278;22542;-73
2024/03/20 08:21:29;;;;;;;9.30;8.10;;;;;;;22.87;37.77;97174.83;108292;1277;22529;-74
2024/03/20 08:24:00;;;;;;;10.80;7.80;;;;;;;23.21;35.20;97177.86;108312;1278;22571;-73
2024/03/20 08:26:32;;;;;;;9.40;7.80;;;;;;;21.93;33.22;97178.02;108346;1271;22537;-73
2024/03/20 08:29:04;;;;;;;10.20;8.20;;;;;;;21.64;35.43;97176.45;108299;1278;22518;-73
2024/03/20 08:31:35;;;;;;;9.90;8.30;;;;;;;22.04;34.25;97177.45;108278;1278;22540;-73
2024/03/20 08:34:06;;;;;;;9.70;8.00;;;;;;;21.42;33.87;97181.59;108338;1277;22540;-73
2024/03/20 08:36:36;;;;;;;9.10;7.30;;;;;;;21.89;35.45;97178.75;108322;1277;25325;-73
2024/03/20 08:39:09;;;;;;;10.30;8.00;;;;;;;22.38;35.59;97177.03;108292;1278;24292;-73
2024/03/20 08:41:40;;;;;;;10.10;8.20;;;;;;;22.43;35.72;97174.88;108285;1271;22540;-73
2024/03/20 08:44:11;;;;;;;9.80;7.90;;;;;;;22.27;33.29;97168.66;108321;1278;25353;-74
2024/03/20 08:46:42;;;;;;;11.60;8.90;;;;;;;20.67;32.01;97171.36;108335;1277;22561;-73
2024/03/20 08:49:13;;;;;;;13.50;11.20;;;;;;;18.99;32.09;97172.31;108325;1278;23055;-74
2024/03/20 08:51:44;;;;;;;13.80;11.30;;;;;;;17.50;33.91;97173.27;108294;1278;25347;-73
2024/03/20 08:54:15;;;;;;;16.00;12.30;;;;;;;16.34;34.92;97175.38;108339;1278;22523;-73
2024/03/20 08:56:46;;;;;;;14.70;11.60;;;;;;;15.87;37.31;97183.86;108277;1278;22533;-73
2024/03/20 08:59:17;;;;;;;12.80;11.00;;;;;;;15.88;37.39;97181.96;108288;1279;25296;-73
2024/03/20 09:01:48;;;;;;;14.30;11.60;;;;;;;15.11;37.56;97183.02;108230;1278;22654;-73
2024/03/20 09:04:18;;;;;;;14.30;11.50;;;;;;;14.52;38.32;97183.51;108304;1277;22536;-73
2024/03/20 09:06:49;;;;;;;16.40;12.90;;;;;;;13.91;38.54;97180.26;108299;1278;24291;-73
2024/03/20 09:09:20;;;;;;;15.60;11.60;;;;;;;13.47;39.69;97180.20;108307;1276;22536;-73
2024/03/20 09:11:51;;;;;;;15.20;11.50;;;;;;;13.57;40.49;97181.43;108239;1271;22533;-73
2024/03/20 09:14:22;;;;;;;16.60;12.80;;;;;;;13.46;40.07;97177.24;108263;1278;22659;-73
2024/03/20 09:16:53;;;;;;;13.90;11.00;;;;;;;13.20;41.19;97178.02;108286;1278;22531;-73
2024/03/20 09:19:24;;;;;;;14.00;11.40;;;;;;;13.25;41.43;97174.67;108303;1262;25509;-73
2024/03/20 09:21:55;;;;;;;16.70;12.70;;;;;;;13.28;41.64;97177.25;108317;1276;22550;-73
2024/03/20 09:24:26;;;;;;;16.30;12.00;;;;;;;12.75;41.12;97173.64;108342;1278;22520;-73
2024/03/20 09:26:58;;;;;;;15.60;11.60;;;;;;;12.40;42.01;97176.64;108272;1271;22553;-73
2024/03/20 09:29:29;;;;;;;17.70;14.80;;;;;;;12.26;41.99;97173.27;108336;1278;22529;-73
2024/03/20 09:31:59;;;;;;;17.40;12.90;;;;;;;12.19;43.46;97171.92;108213;1278;26028;-73
2024/03/20 09:34:32;;;;;;;16.60;12.50;;;;;;;12.43;43.86;97166.56;108361;1278;22532;-73
2024/03/20 09:37:07;;;;;;;17.30;12.50;;;;;;;12.57;43.58;97162.38;108330;1278;24258;-73
2024/03/20 09:39:38;;;;;;;15.90;13.20;;;;;;;12.03;42.62;97161.15;108302;1277;22532;-73
2024/03/20 09:42:10;;;;;;;15.90;11.80;;;;;;;11.67;44.08;97158.14;108283;1278;22546;-72
2024/03/20 09:44:41;;;;;;;15.20;11.90;;;;;;;11.67;43.91;97159.05;108312;1277;24267;-73
2024/03/20 09:47:12;;;;;;;17.00;12.00;;;;;;;11.24;43.29;97158.22;108347;1277;25365;-73
2024/03/20 09:49:44;;;;;;;17.40;12.40;;;;;;;10.95;44.47;97156.44;108290;1277;22539;-73
2024/03/20 09:52:19;;;;;;;19.30;12.50;;;;;;;10.89;45.28;97154.39;108279;1277;22544;-73
2024/03/20 09:54:50;;;;;;;17.60;12.20;;;;;;;11.10;46.08;97153.98;108290;1260;22619;-73
2024/03/20 09:57:24;;;;;;;18.00;13.00;;;;;;;11.37;45.94;97151.60;108359;1277;25271;-73
2024/03/20 09:59:57;;;;;;;18.40;13.50;;;;;;;11.52;46.00;97146.73;108310;1278;22541;-73
2024/03/20 10:02:30;;;;;;;17.50;13.30;;;;;;;11.44;45.52;97140.06;108289;1277;26403;-73
2024/03/20 10:05:01;;;;;;;17.30;12.70;;;;;;;11.29;45.46;97142.92;108270;1278;22543;-73
2024/03/20 10:07:32;;;;;;;16.70;12.80;;;;;;;11.07;45.78;97138.08;108275;1271;22539;-72
2024/03/20 10:10:12;;;;;;;18.00;13.20;;;;;;;11.04;46.02;97137.08;108299;1278;25414;-73
2024/03/20 10:12:46;;;;;;;16.40;13.20;;;;;;;10.79;45.95;97136.89;108272;1271;22663;-73
2024/03/20 10:15:24;;;;;;;17.20;12.60;;;;;;;10.80;47.15;97134.50;108366;1271;22534;-73
2024/03/20 10:17:57;;;;;;;17.60;12.70;;;;;;;11.09;47.26;97130.16;108288;1278;22531;-73
2024/03/20 10:20:28;;;;;;;18.30;12.60;;;;;;;11.24;47.78;97129.66;108293;1278;22554;-73
2024/03/20 10:23:01;;;;;;;17.30;12.80;;;;;;;11.48;47.89;97126.98;108226;1271;22585;-73
2024/03/20 10:25:31;;;;;;;18.00;13.00;;;;;;;11.69;47.75;97123.94;108228;1271;22528;-73
2024/03/20 10:28:04;;;;;;;17.70;13.80;;;;;;;11.79;47.90;97119.02;108194;1276;22549;-72
2024/03/20 10:30:36;;;;;;;19.50;13.70;;;;;;;11.93;47.93;97118.80;108223;1272;22768;-73
2024/03/20 10:33:17;;;;;;;18.60;13.40;;;;;;;11.97;47.87;97118.84;108283;1278;22965;-73
2024/03/20 10:35:53;;;;;;;18.30;12.40;;;;;;;12.02;47.43;97116.74;108339;1271;22535;-73
2024/03/20 10:38:24;;;;;;;15.10;12.40;;;;;;;11.60;46.29;97114.19;108373;1271;22579;-73
2024/03/20 10:40:55;;;;;;;14.70;12.40;;;;;;;11.26;46.53;97114.73;108320;1278;22609;-73
2024/03/20 10:43:28;;;;;;;17.30;13.10;;;;;;;11.24;47.27;97119.67;108311;1279;22559;-73
2024/03/20 10:46:00;;;;;;;14.80;11.70;;;;;;;11.44;47.78;97113.09;108300;1278;22714;-73
2024/03/20 10:48:31;;;;;;;16.50;13.20;;;;;;;11.46;47.00;97110.70;108351;1278;22560;-73
2024/03/20 10:51:02;;;;;;;18.40;13.80;;;;;;;11.17;46.55;97109.23;108294;1278;22593;-73
2024/03/20 10:53:33;;;;;;;16.30;12.00;;;;;;;10.85;47.02;97110.26;108243;1278;22539;-73
2024/03/20 10:56:05;;;;;;;17.10;13.10;;;;;;;10.61;47.02;97105.23;108343;1271;22545;-73
2024/03/20 10:58:36;;;;;;;17.50;13.50;;;;;;;10.47;47.42;97102.79;108263;1271;22663;-73
2024/03/20 11:01:13;;;;;;;17.10;13.00;;;;;;;10.27;47.78;97100.65;108302;1278;25085;-73
2024/03/20 11:03:48;;;;;;;17.10;12.60;;;;;;;10.38;48.62;97095.32;108302;1277;22542;-73
2024/03/20 11:06:40;;;;;;;16.40;12.50;;;;;;;10.55;48.91;97090.50;108304;1276;22561;-73
2024/03/20 11:09:30;;;;;;;18.80;14.10;;;;;;;10.71;48.92;97085.98;108305;1276;22539;-73
2024/03/20 11:12:07;;;;;;;;;;;;;;;10.70;48.37;97082.11;108294;1277;23842;-73
2024/03/20 11:14:38;;;;;;;18.50;13.80;;;;;;;10.46;48.49;97082.98;108304;1277;22524;-73
2024/03/20 11:17:11;;;;;;;17.40;13.10;;;;;;;10.55;49.25;97076.66;108332;1277;22548;-73
2024/03/20 11:19:43;;;;;;;17.40;13.00;;;;;;;10.78;49.84;97077.21;108302;1277;25428;-73
2024/03/20 11:22:24;;;;;;;18.20;13.60;;;;;;;11.03;49.64;97079.45;108316;1277;22546;-73
2024/03/20 11:24:55;;;;;;;16.60;12.80;;;;;;;11.14;49.44;97077.52;108318;1277;22534;-73
2024/03/20 11:27:27;;;;;;;16.20;13.20;;;;;;;11.29;49.91;97076.35;108288;1271;24257;-73
2024/03/20 11:29:57;;;;;;;16.90;12.40;;;;;;;11.45;49.96;97075.44;108338;1277;25577;-73
2024/03/20 11:32:28;;;;;;;18.50;13.70;;;;;;;11.58;49.93;97072.30;108306;1277;22539;-73
2024/03/20 11:34:59;;;;;;;16.70;13.10;;;;;;;11.70;49.81;97068.64;108277;1271;22535;-73